createdAt,value
2018-09-30T00:01:57.636Z,9.17
2018-09-30T00:04:26.203Z,9.16
2018-09-30T00:06:54.924Z,9.14
2018-09-30T00:09:30.288Z,9.13
2018-09-30T00:12:00.683Z,9.14
2018-09-30T00:14:29.278Z,9.02
2018-09-30T00:16:58.366Z,9.00
2018-09-30T00:19:27.062Z,8.99
2018-09-30T00:21:55.653Z,9.06
2018-09-30T00:24:29.555Z,9.05
2018-09-30T00:26:59.756Z,8.98
2018-09-30T00:29:29.766Z,8.96
2018-09-30T00:31:59.302Z,8.98
2018-09-30T00:34:29.006Z,8.99
2018-09-30T00:36:58.836Z,8.99
2018-09-30T00:39:28.098Z,8.94
2018-09-30T00:41:56.666Z,8.95
2018-09-30T00:44:25.403Z,8.90
2018-09-30T00:46:54.390Z,8.79
2018-09-30T00:49:23.041Z,8.77
2018-09-30T00:51:51.634Z,8.74
2018-09-30T00:54:20.328Z,8.70
2018-09-30T00:56:48.935Z,8.71
2018-09-30T00:59:17.643Z,8.70
2018-09-30T01:01:46.291Z,8.72
2018-09-30T01:04:14.883Z,8.70
2018-09-30T01:06:43.420Z,8.71
2018-09-30T01:09:14.614Z,8.75
2018-09-30T01:11:43.930Z,8.79
2018-09-30T01:14:12.601Z,8.85
2018-09-30T01:16:42.459Z,8.84
2018-09-30T01:19:11.346Z,8.84
2018-09-30T01:21:39.920Z,8.86
2018-09-30T01:24:08.707Z,8.87
2018-09-30T01:26:37.378Z,8.88
2018-09-30T01:29:06.198Z,8.88
2018-09-30T01:31:34.971Z,8.88
2018-09-30T01:34:04.217Z,8.88
2018-09-30T01:36:32.853Z,8.87
2018-09-30T01:39:01.896Z,8.89
2018-09-30T01:41:30.416Z,8.82
2018-09-30T01:43:59.232Z,8.77
2018-09-30T01:46:27.794Z,8.81
2018-09-30T01:48:56.445Z,8.79
2018-09-30T01:51:24.975Z,8.85
2018-09-30T01:53:53.554Z,8.81
2018-09-30T01:56:22.191Z,8.84
2018-09-30T01:58:50.746Z,8.86
2018-09-30T02:01:19.314Z,8.84
2018-09-30T02:03:47.851Z,8.82
2018-09-30T02:06:16.437Z,8.83
2018-09-30T02:08:44.926Z,8.81
2018-09-30T02:11:13.511Z,8.77
2018-09-30T02:13:42.392Z,8.72
2018-09-30T02:16:11.020Z,8.69
2018-09-30T02:18:40.100Z,8.64
2018-09-30T02:21:08.778Z,8.65
2018-09-30T02:23:37.428Z,8.62
2018-09-30T02:26:06.072Z,8.60
2018-09-30T02:28:34.716Z,8.63
2018-09-30T02:31:03.441Z,8.57
2018-09-30T02:33:32.102Z,8.63
2018-09-30T02:36:00.792Z,8.65
2018-09-30T02:38:29.429Z,8.66
2018-09-30T02:40:58.017Z,8.66
2018-09-30T02:43:26.625Z,8.58
2018-09-30T02:45:55.246Z,8.61
2018-09-30T02:48:23.921Z,8.57
2018-09-30T02:50:52.516Z,8.47
2018-09-30T02:53:21.304Z,8.50
2018-09-30T02:55:50.081Z,8.55
2018-09-30T02:58:18.740Z,8.52
2018-09-30T03:00:47.484Z,8.50
2018-09-30T03:03:17.234Z,8.51
2018-09-30T03:05:46.014Z,8.52
2018-09-30T03:08:19.733Z,8.43
2018-09-30T03:10:48.386Z,8.43
2018-09-30T03:13:17.087Z,8.43
2018-09-30T03:15:45.819Z,8.45
2018-09-30T03:18:14.717Z,8.37
2018-09-30T03:20:43.314Z,8.43
2018-09-30T03:23:11.971Z,8.39
2018-09-30T03:25:40.609Z,8.42
2018-09-30T03:28:09.130Z,8.44
2018-09-30T03:30:37.637Z,8.45
2018-09-30T03:33:06.394Z,8.44
2018-09-30T03:35:34.979Z,8.46
2018-09-30T03:38:04.333Z,8.52
2018-09-30T03:40:32.906Z,8.50
2018-09-30T03:43:01.695Z,8.47
2018-09-30T03:45:30.251Z,8.46
2018-09-30T03:47:58.951Z,8.49
2018-09-30T03:50:27.674Z,8.56
2018-09-30T03:52:56.329Z,8.64
2018-09-30T03:55:24.996Z,8.67
2018-09-30T03:57:53.553Z,8.63
2018-09-30T04:00:22.328Z,8.59
2018-09-30T04:02:50.951Z,8.46
2018-09-30T04:05:19.570Z,8.44
2018-09-30T04:07:48.132Z,8.45
2018-09-30T04:10:16.874Z,8.46
2018-09-30T04:12:45.395Z,8.47
2018-09-30T04:15:14.017Z,8.46
2018-09-30T04:17:42.630Z,8.48
2018-09-30T04:20:11.839Z,8.47
2018-09-30T04:22:40.641Z,8.52
2018-09-30T04:25:09.175Z,8.47
2018-09-30T04:27:37.830Z,8.48
2018-09-30T04:30:06.397Z,8.38
2018-09-30T04:32:34.933Z,8.43
2018-09-30T04:35:03.908Z,8.46
2018-09-30T04:37:32.592Z,8.49
2018-09-30T04:40:01.465Z,8.49
2018-09-30T04:42:30.001Z,8.50
2018-09-30T04:44:58.551Z,8.50
2018-09-30T04:47:27.257Z,8.50
2018-09-30T04:49:55.899Z,8.49
2018-09-30T04:52:24.587Z,8.52
2018-09-30T04:54:53.257Z,8.52
2018-09-30T04:57:21.794Z,8.45
2018-09-30T04:59:50.425Z,8.49
2018-09-30T05:02:18.986Z,8.45
2018-09-30T05:04:47.783Z,8.39
2018-09-30T05:07:16.337Z,8.37
2018-09-30T05:09:45.135Z,8.41
2018-09-30T05:12:13.908Z,8.42
2018-09-30T05:14:42.576Z,8.41
2018-09-30T05:17:11.233Z,8.43
2018-09-30T05:19:39.934Z,8.44
2018-09-30T05:22:08.519Z,8.44
2018-09-30T05:24:37.193Z,8.45
2018-09-30T05:27:05.891Z,8.39
2018-09-30T05:29:34.507Z,8.41
2018-09-30T05:32:03.362Z,8.40
2018-09-30T05:34:31.859Z,8.36
2018-09-30T05:37:00.504Z,8.33
2018-09-30T05:39:29.162Z,8.31
2018-09-30T05:41:57.763Z,8.28
2018-09-30T05:44:26.329Z,8.27
2018-09-30T05:46:54.932Z,8.24
2018-09-30T05:49:23.536Z,8.25
2018-09-30T05:51:52.176Z,8.28
2018-09-30T05:54:20.912Z,8.32
2018-09-30T05:56:49.608Z,8.37
2018-09-30T05:59:18.496Z,8.40
2018-09-30T06:01:47.110Z,8.47
2018-09-30T06:04:15.923Z,8.44
2018-09-30T06:06:44.852Z,8.47
2018-09-30T06:09:14.872Z,8.50
2018-09-30T06:11:45.261Z,8.57
2018-09-30T06:14:15.187Z,8.60
2018-09-30T06:16:44.223Z,8.61
2018-09-30T06:19:12.870Z,8.63
2018-09-30T06:21:42.075Z,8.74
2018-09-30T06:24:11.747Z,8.81
2018-09-30T06:26:40.942Z,8.92
2018-09-30T06:29:09.631Z,9.01
2018-09-30T06:31:38.433Z,9.06
2018-09-30T06:34:07.131Z,9.14
2018-09-30T06:36:35.748Z,9.22
2018-09-30T06:39:06.304Z,9.26
2018-09-30T06:41:34.812Z,9.31
2018-09-30T06:44:03.645Z,9.39
2018-09-30T06:46:32.215Z,9.49
2018-09-30T06:49:00.926Z,9.57
2018-09-30T06:51:29.541Z,9.65
2018-09-30T06:53:58.155Z,9.69
2018-09-30T06:56:26.758Z,9.78
2018-09-30T06:58:55.369Z,9.81
2018-09-30T07:01:24.625Z,9.91
2018-09-30T07:03:53.201Z,9.98
2018-09-30T07:06:21.763Z,10.03
2018-09-30T07:08:50.448Z,10.10
2018-09-30T07:11:19.205Z,10.14
2018-09-30T07:13:47.740Z,10.19
2018-09-30T07:16:16.398Z,10.20
2018-09-30T07:18:44.989Z,10.24
2018-09-30T07:21:13.695Z,10.30
2018-09-30T07:23:42.179Z,10.38
2018-09-30T07:26:10.714Z,10.46
2018-09-30T07:28:39.515Z,10.51
2018-09-30T07:31:08.230Z,10.56
2018-09-30T07:33:36.811Z,10.62
2018-09-30T07:36:05.474Z,10.66
2018-09-30T07:38:34.412Z,10.73
2018-09-30T07:41:03.225Z,10.78
2018-09-30T07:43:31.830Z,10.83
2018-09-30T07:46:00.572Z,10.89
2018-09-30T07:48:29.216Z,10.95
2018-09-30T07:50:57.875Z,11.00
2018-09-30T07:53:26.575Z,11.07
2018-09-30T07:55:55.289Z,11.14
2018-09-30T07:58:24.186Z,11.20
2018-09-30T08:00:52.923Z,11.26
2018-09-30T08:03:21.650Z,11.31
2018-09-30T08:05:50.782Z,11.36
2018-09-30T08:08:19.598Z,11.41
2018-09-30T08:10:48.372Z,11.47
2018-09-30T08:13:17.165Z,11.56
2018-09-30T08:15:46.358Z,11.59
2018-09-30T08:18:15.178Z,11.66
2018-09-30T08:20:43.936Z,11.72
2018-09-30T08:23:12.643Z,11.78
2018-09-30T08:25:41.281Z,11.82
2018-09-30T08:28:09.962Z,11.90
2018-09-30T08:30:38.859Z,11.97
2018-09-30T08:33:07.504Z,12.01
2018-09-30T08:35:36.075Z,12.07
2018-09-30T08:38:11.122Z,12.14
2018-09-30T08:40:44.825Z,12.21
2018-09-30T08:43:13.519Z,12.27
2018-09-30T08:45:42.206Z,12.32
2018-09-30T08:48:10.775Z,12.38
2018-09-30T08:50:39.532Z,12.44
2018-09-30T08:53:08.288Z,12.50
2018-09-30T08:55:36.912Z,12.55
2018-09-30T08:58:05.544Z,12.61
2018-09-30T09:00:34.550Z,12.67
2018-09-30T09:03:03.676Z,12.74
2018-09-30T09:05:32.492Z,12.78
2018-09-30T09:08:02.387Z,12.83
2018-09-30T09:10:31.057Z,12.91
2018-09-30T09:13:00.282Z,12.96
2018-09-30T09:15:29.155Z,13.03
2018-09-30T09:17:57.742Z,13.10
2018-09-30T09:20:26.350Z,13.17
2018-09-30T09:22:54.958Z,13.24
2018-09-30T09:25:23.696Z,13.32
2018-09-30T09:27:52.387Z,13.40
2018-09-30T09:30:21.182Z,13.47
2018-09-30T09:32:49.920Z,13.54
2018-09-30T09:35:18.648Z,13.59
2018-09-30T09:37:47.373Z,13.65
2018-09-30T09:40:16.087Z,13.72
2018-09-30T09:42:44.872Z,13.80
2018-09-30T09:45:13.604Z,13.90
2018-09-30T09:47:42.201Z,13.99
2018-09-30T09:50:10.961Z,14.06
2018-09-30T09:52:39.675Z,14.15
2018-09-30T09:55:08.385Z,14.21
2018-09-30T09:57:37.128Z,14.28
2018-09-30T10:00:06.553Z,14.32
2018-09-30T10:02:35.379Z,14.40
2018-09-30T10:05:04.135Z,14.49
2018-09-30T10:07:32.903Z,14.59
2018-09-30T10:10:01.794Z,14.67
2018-09-30T10:12:30.605Z,14.71
2018-09-30T10:14:59.354Z,14.78
2018-09-30T10:17:28.015Z,14.91
2018-09-30T10:19:56.631Z,14.99
2018-09-30T10:22:25.397Z,15.05
2018-09-30T10:24:54.035Z,15.11
2018-09-30T10:27:22.722Z,15.17
2018-09-30T10:29:51.342Z,15.20
2018-09-30T10:32:20.039Z,15.22
2018-09-30T10:34:48.625Z,15.26
2018-09-30T10:37:17.182Z,15.27
2018-09-30T10:39:46.249Z,15.35
2018-09-30T10:42:14.835Z,15.39
2018-09-30T10:44:43.779Z,15.44
2018-09-30T10:47:12.381Z,15.53
2018-09-30T10:49:41.004Z,15.61
2018-09-30T10:52:09.594Z,15.67
2018-09-30T10:54:38.342Z,15.72
2018-09-30T10:57:07.121Z,15.79
2018-09-30T10:59:35.860Z,15.89
2018-09-30T11:02:04.475Z,15.99
2018-09-30T11:04:33.100Z,16.05
2018-09-30T11:07:08.098Z,16.18
2018-09-30T11:09:36.797Z,16.29
2018-09-30T11:12:05.515Z,16.38
2018-09-30T11:14:34.211Z,16.37
2018-09-30T11:17:03.782Z,16.41
2018-09-30T11:19:32.428Z,16.47
2018-09-30T11:22:01.667Z,16.55
2018-09-30T11:24:30.351Z,16.53
2018-09-30T11:26:59.100Z,16.60
2018-09-30T11:29:27.771Z,16.70
2018-09-30T11:31:56.486Z,16.82
2018-09-30T11:34:25.161Z,16.96
2018-09-30T11:36:53.756Z,17.06
2018-09-30T11:39:22.488Z,17.17
2018-09-30T11:41:51.051Z,17.31
2018-09-30T11:44:19.621Z,17.29
2018-09-30T11:46:48.255Z,17.32
2018-09-30T11:49:16.953Z,17.36
2018-09-30T11:51:45.617Z,17.41
2018-09-30T11:54:14.281Z,17.49
2018-09-30T11:56:43.496Z,17.55
2018-09-30T11:59:12.246Z,17.61
2018-09-30T12:01:41.062Z,17.67
2018-09-30T12:04:09.737Z,17.75
2018-09-30T12:06:38.252Z,17.68
2018-09-30T12:09:08.846Z,17.66
2018-09-30T12:11:37.745Z,17.84
2018-09-30T12:14:06.653Z,17.92
2018-09-30T12:16:39.485Z,17.97
2018-09-30T12:19:08.123Z,18.05
2018-09-30T12:21:36.783Z,18.09
2018-09-30T12:24:05.467Z,18.17
2018-09-30T12:26:34.037Z,18.29
2018-09-30T12:29:02.972Z,18.42
2018-09-30T12:31:31.605Z,18.54
2018-09-30T12:34:00.301Z,18.60
2018-09-30T12:36:29.030Z,18.57
2018-09-30T12:38:57.698Z,18.73
2018-09-30T12:41:26.415Z,18.90
2018-09-30T12:43:55.059Z,18.94
2018-09-30T12:46:23.751Z,18.83
2018-09-30T12:48:52.523Z,18.86
2018-09-30T12:51:21.032Z,18.95
2018-09-30T12:53:49.623Z,19.01
2018-09-30T12:56:18.398Z,19.05
2018-09-30T12:58:47.069Z,19.06
2018-09-30T13:01:15.712Z,19.16
2018-09-30T13:03:44.466Z,19.16
2018-09-30T13:06:13.572Z,19.30
2018-09-30T13:08:42.242Z,19.42
2018-09-30T13:11:10.915Z,19.56
2018-09-30T13:13:39.464Z,19.70
2018-09-30T13:16:08.120Z,19.73
2018-09-30T13:18:36.752Z,19.81
2018-09-30T13:21:05.640Z,19.98
2018-09-30T13:23:34.209Z,19.93
2018-09-30T13:26:03.893Z,19.84
2018-09-30T13:28:32.545Z,19.89
2018-09-30T13:31:01.543Z,19.84
2018-09-30T13:33:30.220Z,19.86
2018-09-30T13:35:58.833Z,19.82
2018-09-30T13:38:27.556Z,19.73
2018-09-30T13:40:56.271Z,19.65
2018-09-30T13:43:24.931Z,19.50
2018-09-30T13:45:53.660Z,19.38
2018-09-30T13:48:22.252Z,19.17
2018-09-30T13:50:50.924Z,19.03
2018-09-30T13:56:04.177Z,18.83
2018-09-30T13:58:32.821Z,18.75
2018-09-30T14:01:02.638Z,18.64
2018-09-30T14:03:31.382Z,18.59
2018-09-30T14:06:00.105Z,18.54
2018-09-30T14:08:28.923Z,18.47
2018-09-30T14:10:57.615Z,18.46
2018-09-30T14:13:26.155Z,18.41
2018-09-30T14:15:54.808Z,18.33
2018-09-30T14:18:23.384Z,18.34
2018-09-30T14:20:52.013Z,18.37
2018-09-30T14:23:20.640Z,18.38
2018-09-30T14:25:49.306Z,18.37
2018-09-30T14:28:18.011Z,18.37
2018-09-30T14:30:46.979Z,18.37
2018-09-30T14:33:15.829Z,18.36
2018-09-30T14:35:44.704Z,18.29
2018-09-30T14:38:13.336Z,18.24
2018-09-30T14:40:41.971Z,18.13
2018-09-30T14:43:10.753Z,18.08
2018-09-30T14:45:39.423Z,18.12
2018-09-30T14:48:08.256Z,18.20
2018-09-30T14:50:36.943Z,18.31
2018-09-30T14:53:05.530Z,18.46
2018-09-30T14:55:34.240Z,18.59
2018-09-30T14:58:03.769Z,18.69
2018-09-30T15:00:32.413Z,18.75
2018-09-30T15:03:00.968Z,18.75
2018-09-30T15:05:29.520Z,18.72
2018-09-30T15:07:58.285Z,18.65
2018-09-30T15:10:27.008Z,18.53
2018-09-30T15:12:56.419Z,18.38
2018-09-30T15:15:25.152Z,18.25
2018-09-30T15:17:53.679Z,18.10
2018-09-30T15:20:22.353Z,18.03
2018-09-30T15:22:50.849Z,17.99
2018-09-30T15:25:19.654Z,17.94
2018-09-30T15:27:48.256Z,17.86
2018-09-30T15:30:17.267Z,17.82
2018-09-30T15:32:46.252Z,17.80
2018-09-30T15:35:14.804Z,17.79
2018-09-30T15:37:43.729Z,17.75
2018-09-30T15:40:13.096Z,17.70
2018-09-30T15:42:41.763Z,17.64
2018-09-30T15:45:11.006Z,17.59
2018-09-30T15:47:39.669Z,17.61
2018-09-30T15:50:08.375Z,17.57
2018-09-30T15:52:37.096Z,17.51
2018-09-30T15:55:05.817Z,17.43
2018-09-30T15:57:34.468Z,17.40
2018-09-30T16:00:03.792Z,17.37
2018-09-30T16:02:32.565Z,17.33
2018-09-30T16:05:01.783Z,17.29
2018-09-30T16:07:30.453Z,17.22
2018-09-30T16:09:59.194Z,17.17
2018-09-30T16:12:27.745Z,17.12
2018-09-30T16:14:56.447Z,17.05
2018-09-30T16:17:25.169Z,16.99
2018-09-30T16:19:53.787Z,16.95
2018-09-30T16:22:22.513Z,16.91
2018-09-30T16:24:51.304Z,16.86
2018-09-30T16:27:19.920Z,16.82
2018-09-30T16:29:48.471Z,16.78
2018-09-30T16:32:17.166Z,16.73
2018-09-30T16:34:45.840Z,16.69
2018-09-30T16:37:14.501Z,16.65
2018-09-30T16:39:43.278Z,16.62
2018-09-30T16:42:11.860Z,16.55
2018-09-30T16:44:40.606Z,16.52
2018-09-30T16:47:09.248Z,16.45
2018-09-30T16:49:37.909Z,16.39
2018-09-30T16:52:06.602Z,16.33
2018-09-30T16:54:35.196Z,16.28
2018-09-30T16:57:03.832Z,16.22
2018-09-30T16:59:32.351Z,16.15
2018-09-30T17:02:00.954Z,16.06
2018-09-30T17:04:29.658Z,16.01
2018-09-30T17:06:58.231Z,15.95
2018-09-30T17:09:26.783Z,15.91
2018-09-30T17:11:55.426Z,15.85
2018-09-30T17:14:24.284Z,15.81
2018-09-30T17:16:53.033Z,15.76
2018-09-30T17:19:21.621Z,15.69
2018-09-30T17:21:50.230Z,15.64
2018-09-30T17:24:18.988Z,15.59
2018-09-30T17:26:47.983Z,15.51
2018-09-30T17:29:18.102Z,15.46
2018-09-30T17:31:46.723Z,15.42
2018-09-30T17:34:15.438Z,15.35
2018-09-30T17:36:44.084Z,15.32
2018-09-30T17:39:12.901Z,15.27
2018-09-30T17:41:41.636Z,15.23
2018-09-30T17:44:10.249Z,15.18
2018-09-30T17:46:38.989Z,15.15
2018-09-30T17:49:07.616Z,15.12
2018-09-30T17:51:36.403Z,15.09
2018-09-30T17:54:05.219Z,15.05
2018-09-30T17:56:33.882Z,15.02
2018-09-30T17:59:02.769Z,15.01
2018-09-30T18:01:31.399Z,14.98
2018-09-30T18:04:00.199Z,14.96
2018-09-30T18:06:28.994Z,14.91
2018-09-30T18:08:57.591Z,14.88
2018-09-30T18:11:26.138Z,14.85
2018-09-30T18:13:54.778Z,14.81
2018-09-30T18:16:23.423Z,14.75
2018-09-30T18:18:51.980Z,14.72
2018-09-30T18:21:20.513Z,14.63
2018-09-30T18:23:49.294Z,14.52
2018-09-30T18:26:17.948Z,14.44
2018-09-30T18:28:46.814Z,14.32
2018-09-30T18:31:15.553Z,14.20
2018-09-30T18:36:26.850Z,13.99
2018-09-30T18:38:55.584Z,13.88
2018-09-30T18:41:24.140Z,13.77
2018-09-30T18:43:52.941Z,13.70
2018-09-30T18:46:21.636Z,13.61
2018-09-30T18:48:50.222Z,13.54
2018-09-30T18:51:18.809Z,13.46
2018-09-30T18:53:47.625Z,13.42
2018-09-30T18:56:16.438Z,13.32
2018-09-30T18:58:44.956Z,13.25
2018-09-30T19:01:13.557Z,13.19
2018-09-30T19:03:42.137Z,13.14
2018-09-30T19:06:10.825Z,13.08
2018-09-30T19:08:39.414Z,13.05
2018-09-30T19:11:08.132Z,12.99
2018-09-30T19:13:36.875Z,12.96
2018-09-30T19:16:05.929Z,12.93
2018-09-30T19:18:34.603Z,12.90
2018-09-30T19:21:03.645Z,12.86
2018-09-30T19:23:32.264Z,12.78
2018-09-30T19:26:01.034Z,12.73
2018-09-30T19:28:29.710Z,12.69
2018-09-30T19:30:58.387Z,12.68
2018-09-30T19:33:26.955Z,12.64
2018-09-30T19:35:55.672Z,12.63
2018-09-30T19:38:24.397Z,12.57
2018-09-30T19:40:53.684Z,12.57
2018-09-30T19:43:23.245Z,12.56
2018-09-30T19:45:52.052Z,12.52
2018-09-30T19:48:20.836Z,12.50
2018-09-30T19:50:49.757Z,12.47
2018-09-30T19:53:18.599Z,12.42
2018-09-30T19:55:47.252Z,12.40
2018-09-30T19:58:15.890Z,12.33
2018-09-30T20:00:44.552Z,12.30
2018-09-30T20:03:13.191Z,12.29
2018-09-30T20:05:41.906Z,12.23
2018-09-30T20:08:10.566Z,12.19
2018-09-30T20:10:39.467Z,12.14
2018-09-30T20:13:08.079Z,12.09
2018-09-30T20:15:36.724Z,12.02
2018-09-30T20:18:05.480Z,12.02
2018-09-30T20:20:34.226Z,11.96
2018-09-30T20:23:04.386Z,11.94
2018-09-30T20:25:33.002Z,11.89
2018-09-30T20:28:02.293Z,11.84
2018-09-30T20:30:30.968Z,11.78
2018-09-30T20:32:59.621Z,11.74
2018-09-30T20:35:28.344Z,11.73
2018-09-30T20:37:57.090Z,11.70
2018-09-30T20:40:25.817Z,11.64
2018-09-30T20:42:54.406Z,11.64
2018-09-30T20:45:23.021Z,11.61
2018-09-30T20:47:51.627Z,11.58
2018-09-30T20:50:20.302Z,11.58
2018-09-30T20:52:49.046Z,11.54
2018-09-30T20:55:17.735Z,11.55
2018-09-30T20:57:46.495Z,11.57
2018-09-30T21:00:15.279Z,11.55
2018-09-30T21:02:44.061Z,11.53
2018-09-30T21:05:25.271Z,11.49
2018-09-30T21:07:54.204Z,11.43
2018-09-30T21:10:22.812Z,11.38
2018-09-30T21:12:51.457Z,11.33
2018-09-30T21:15:20.276Z,11.29
2018-09-30T21:17:48.854Z,11.28
2018-09-30T21:20:17.471Z,11.29
2018-09-30T21:22:46.160Z,11.28
2018-09-30T21:25:14.865Z,11.23
2018-09-30T21:27:43.484Z,11.24
2018-09-30T21:30:12.122Z,11.19
2018-09-30T21:32:40.816Z,11.17
2018-09-30T21:35:09.548Z,11.16
2018-09-30T21:37:38.365Z,11.14
2018-09-30T21:40:07.147Z,11.12
2018-09-30T21:42:35.969Z,11.11
2018-09-30T21:45:04.725Z,11.08
2018-09-30T21:47:33.550Z,11.02
2018-09-30T21:50:03.460Z,11.01
2018-09-30T21:52:32.201Z,10.98
2018-09-30T21:55:01.101Z,10.98
2018-09-30T21:57:29.675Z,10.95
2018-09-30T21:59:58.226Z,10.96
2018-09-30T22:02:26.874Z,10.98
2018-09-30T22:04:55.549Z,10.95
2018-09-30T22:07:24.164Z,10.91
2018-09-30T22:09:52.715Z,10.89
2018-09-30T22:12:21.320Z,10.85
2018-09-30T22:14:50.203Z,10.85
2018-09-30T22:17:19.015Z,10.85
2018-09-30T22:19:47.582Z,10.83
2018-09-30T22:22:16.263Z,10.82
2018-09-30T22:24:44.812Z,10.82
2018-09-30T22:27:13.595Z,10.82
2018-09-30T22:29:42.169Z,10.78
2018-09-30T22:32:10.763Z,10.77
2018-09-30T22:34:39.291Z,10.72
2018-09-30T22:37:07.828Z,10.71
2018-09-30T22:39:36.502Z,10.67
2018-09-30T22:42:05.303Z,10.66
2018-09-30T22:44:34.021Z,10.64
2018-09-30T22:47:02.685Z,10.61
2018-09-30T22:49:31.155Z,10.56
2018-09-30T22:51:59.806Z,10.55
2018-09-30T22:54:28.476Z,10.51
2018-09-30T22:56:57.148Z,10.51
2018-09-30T22:59:25.985Z,10.51
2018-09-30T23:01:54.583Z,10.50
2018-09-30T23:04:23.196Z,10.45
2018-09-30T23:06:51.998Z,10.44
2018-09-30T23:09:20.603Z,10.38
2018-09-30T23:11:49.288Z,10.36
2018-09-30T23:14:17.883Z,10.31
2018-09-30T23:16:46.534Z,10.33
2018-09-30T23:19:15.195Z,10.34
2018-09-30T23:21:43.822Z,10.31
2018-09-30T23:24:12.604Z,10.35
2018-09-30T23:26:41.127Z,10.36
2018-09-30T23:31:37.513Z,10.36
2018-09-30T23:34:06.533Z,10.34
2018-09-30T23:36:35.145Z,10.34
2018-09-30T23:39:04.915Z,10.35
2018-09-30T23:41:33.548Z,10.35
2018-09-30T23:44:02.758Z,10.31
2018-09-30T23:46:31.337Z,10.29
2018-09-30T23:49:00.024Z,10.27
2018-09-30T23:51:28.685Z,10.30
2018-09-30T23:53:57.362Z,10.38
2018-09-30T23:56:26.012Z,10.39
2018-09-30T23:58:54.562Z,10.39
